createdAt,value
2022-12-17T00:03:53.278Z,59.98
2022-12-17T00:09:18.735Z,47.63
2022-12-17T00:14:40.275Z,48.33
2022-12-17T00:20:04.298Z,49.70
2022-12-17T00:25:26.493Z,51.02
2022-12-17T00:30:48.273Z,52.38
2022-12-17T00:36:12.138Z,53.71
2022-12-17T00:41:34.081Z,54.78
2022-12-17T00:46:58.126Z,56.05
2022-12-17T00:52:20.464Z,56.80
2022-12-17T00:57:42.313Z,58.08
2022-12-17T01:03:04.637Z,58.76
2022-12-17T01:08:30.569Z,59.55
2022-12-17T01:13:52.192Z,60.02
2022-12-17T01:19:15.377Z,60.58
2022-12-17T01:24:41.612Z,61.05
2022-12-17T01:30:08.009Z,61.53
2022-12-17T01:35:29.680Z,71.21
2022-12-17T01:40:53.276Z,58.81
2022-12-17T01:46:15.914Z,47.73
2022-12-17T01:51:38.722Z,48.69
2022-12-17T02:02:59.879Z,51.83
2022-12-17T02:09:28.530Z,52.19
2022-12-17T02:15:35.668Z,53.76
2022-12-17T02:21:08.462Z,55.03
2022-12-17T02:27:04.737Z,56.11
2022-12-17T02:32:30.551Z,57.21
2022-12-17T02:37:53.425Z,58.03
2022-12-17T02:43:23.777Z,58.57
2022-12-17T02:48:52.280Z,59.71
2022-12-17T02:54:15.350Z,60.51
2022-12-17T02:59:40.686Z,62.80
2022-12-17T03:05:36.009Z,69.94
2022-12-17T03:10:53.748Z,51.61
2022-12-17T03:16:35.678Z,47.00
2022-12-17T03:22:08.591Z,48.19
2022-12-17T03:27:54.905Z,49.81
2022-12-17T03:33:19.080Z,51.76
2022-12-17T03:44:30.002Z,54.73
2022-12-17T03:50:40.023Z,56.93
2022-12-17T03:56:12.507Z,58.06
2022-12-17T04:02:01.100Z,58.04
2022-12-17T04:07:28.042Z,58.31
2022-12-17T04:12:56.010Z,59.95
2022-12-17T04:18:34.086Z,60.26
2022-12-17T04:24:29.623Z,60.09
2022-12-17T04:29:53.282Z,60.94
2022-12-17T04:35:16.642Z,61.20
2022-12-17T04:40:44.072Z,61.01
2022-12-17T04:46:09.244Z,61.04
2022-12-17T04:51:36.752Z,60.97
2022-12-17T04:56:59.309Z,61.43
2022-12-17T05:02:29.701Z,70.96
2022-12-17T05:07:54.814Z,59.15
2022-12-17T05:13:19.413Z,46.32
2022-12-17T05:18:44.348Z,47.16
2022-12-17T05:24:09.997Z,48.88
2022-12-17T05:29:33.530Z,50.52
2022-12-17T05:35:01.765Z,52.06
2022-12-17T05:40:25.494Z,53.49
2022-12-17T05:45:48.117Z,55.29
2022-12-17T05:57:04.713Z,58.06
2022-12-17T06:02:33.019Z,58.86
2022-12-17T06:07:58.239Z,59.47
2022-12-17T06:13:21.407Z,59.93
2022-12-17T06:19:06.302Z,60.54
2022-12-17T06:24:29.972Z,60.72
2022-12-17T06:30:22.554Z,61.17
2022-12-17T06:35:54.983Z,61.37
2022-12-17T06:41:22.367Z,61.53
2022-12-17T06:46:45.455Z,61.77
2022-12-17T06:52:13.811Z,70.87
2022-12-17T06:57:54.066Z,61.54
2022-12-17T07:03:17.386Z,47.61
2022-12-17T07:08:40.630Z,47.66
2022-12-17T07:19:44.291Z,51.02
2022-12-17T07:25:06.807Z,53.11
2022-12-17T07:30:29.521Z,54.38
2022-12-17T07:35:57.882Z,55.53
2022-12-17T07:48:10.573Z,57.19
2022-12-17T07:53:49.613Z,58.08
2022-12-17T07:59:12.094Z,59.02
2022-12-17T08:04:40.117Z,60.01
2022-12-17T08:10:05.938Z,60.19
2022-12-17T08:15:37.596Z,59.95
2022-12-17T08:21:34.361Z,60.23
2022-12-17T08:26:58.595Z,60.77
2022-12-17T08:32:56.435Z,60.95
2022-12-17T08:39:15.583Z,60.90
2022-12-17T08:44:42.548Z,61.16
2022-12-17T08:50:13.787Z,61.54
2022-12-17T08:56:16.308Z,61.38
2022-12-17T09:01:58.748Z,61.43
2022-12-17T09:15:32.410Z,61.11
2022-12-17T09:20:34.933Z,61.28
2022-12-17T09:26:24.119Z,61.42
2022-12-17T09:38:00.057Z,61.46
2022-12-17T09:44:27.051Z,61.54
2022-12-17T09:50:11.367Z,60.24
2022-12-17T09:55:56.987Z,59.66
2022-12-17T10:01:47.611Z,59.61
2022-12-17T10:08:05.954Z,60.23
2022-12-17T10:14:15.616Z,59.23
2022-12-17T10:20:13.426Z,59.44
2022-12-17T10:25:36.881Z,58.69
2022-12-17T10:30:58.573Z,58.95
2022-12-17T10:36:22.590Z,58.73
2022-12-17T10:41:49.837Z,58.04
2022-12-17T10:47:16.228Z,58.18
2022-12-17T10:52:47.206Z,58.38
2022-12-17T10:58:10.907Z,58.02
2022-12-17T11:04:00.932Z,58.23
2022-12-17T11:09:23.920Z,58.19
2022-12-17T11:14:46.639Z,58.04
2022-12-17T11:21:04.258Z,57.93
2022-12-17T11:26:43.900Z,58.85
2022-12-17T11:35:27.441Z,58.92
2022-12-17T11:46:00.974Z,59.14
2022-12-17T11:51:57.412Z,59.23
2022-12-17T11:57:34.242Z,59.14
2022-12-17T12:03:29.401Z,59.27
2022-12-17T12:09:01.620Z,59.56
2022-12-17T12:21:29.231Z,59.82
2022-12-17T12:27:53.032Z,59.93
2022-12-17T12:33:21.068Z,60.14
2022-12-17T12:44:57.696Z,60.21
2022-12-17T12:51:04.803Z,60.22
2022-12-17T12:56:47.353Z,60.17
2022-12-17T13:02:14.177Z,60.27
2022-12-17T13:07:37.993Z,60.23
2022-12-17T13:13:14.827Z,60.11
2022-12-17T13:18:26.530Z,60.23
2022-12-17T13:23:50.574Z,60.34
2022-12-17T13:29:25.176Z,60.41
2022-12-17T13:34:36.945Z,60.67
2022-12-17T13:39:59.971Z,60.78
2022-12-17T13:45:04.602Z,60.93
2022-12-17T13:50:38.093Z,60.98
2022-12-17T13:55:41.313Z,60.77
2022-12-17T14:00:44.421Z,61.12
2022-12-17T14:05:48.084Z,61.25
2022-12-17T14:11:14.692Z,61.48
2022-12-17T14:16:21.519Z,61.81
2022-12-17T14:21:27.462Z,61.94
2022-12-17T14:26:30.703Z,62.00
2022-12-17T14:31:33.833Z,71.32
2022-12-17T14:36:42.330Z,64.69
2022-12-17T14:42:04.267Z,50.03
2022-12-17T14:47:28.755Z,47.84
2022-12-17T14:52:37.970Z,49.34
2022-12-17T14:57:41.151Z,51.34
2022-12-17T15:02:47.236Z,53.15
2022-12-17T15:07:52.168Z,55.14
2022-12-17T15:12:55.278Z,56.19
2022-12-17T15:17:58.453Z,57.19
2022-12-17T15:23:02.557Z,58.39
2022-12-17T15:28:07.002Z,59.03
2022-12-17T15:33:10.831Z,59.86
2022-12-17T15:38:14.148Z,60.14
2022-12-17T15:43:17.413Z,60.53
2022-12-17T15:48:23.498Z,60.84
2022-12-17T15:53:26.649Z,61.11
2022-12-17T15:58:31.130Z,61.61
2022-12-17T16:03:41.577Z,61.88
2022-12-17T16:08:53.160Z,70.31
2022-12-17T16:14:00.224Z,62.98
2022-12-17T16:19:04.302Z,48.98
2022-12-17T16:24:08.731Z,47.88
2022-12-17T16:29:14.490Z,50.31
2022-12-17T16:34:18.063Z,52.46
2022-12-17T16:39:21.743Z,53.64
2022-12-17T16:44:24.950Z,54.97
2022-12-17T16:49:28.115Z,56.58
2022-12-17T16:54:32.834Z,57.49
2022-12-17T16:59:35.944Z,58.34
2022-12-17T17:04:39.446Z,58.75
2022-12-17T17:09:42.508Z,59.75
2022-12-17T17:14:47.562Z,60.50
2022-12-17T17:19:52.284Z,60.84
2022-12-17T17:24:55.322Z,61.11
2022-12-17T17:30:03.626Z,61.43
2022-12-17T17:35:07.685Z,68.38
2022-12-17T17:40:11.707Z,61.74
2022-12-17T17:45:15.822Z,49.61
2022-12-17T17:50:19.097Z,50.40
2022-12-17T17:55:22.180Z,51.76
2022-12-17T18:00:25.302Z,53.74
2022-12-17T18:05:28.455Z,55.19
2022-12-17T18:10:32.344Z,57.49
2022-12-17T18:15:35.406Z,57.51
2022-12-17T18:20:38.654Z,58.47
2022-12-17T18:25:41.723Z,59.79
2022-12-17T18:30:44.931Z,60.22
2022-12-17T18:35:48.170Z,60.49
2022-12-17T18:40:51.482Z,61.25
2022-12-17T18:45:57.796Z,61.56
2022-12-17T18:51:06.150Z,61.66
2022-12-17T18:56:11.087Z,68.95
2022-12-17T19:01:28.953Z,62.87
2022-12-17T19:06:34.387Z,48.79
2022-12-17T19:11:43.328Z,48.53
2022-12-17T19:16:52.086Z,51.35
2022-12-17T19:22:02.498Z,54.20
2022-12-17T19:27:07.035Z,56.67
2022-12-17T19:32:14.652Z,57.84
2022-12-17T19:37:21.686Z,57.68
2022-12-17T19:42:25.881Z,58.95
2022-12-17T19:47:31.021Z,59.33
2022-12-17T19:52:36.121Z,60.05
2022-12-17T19:57:40.326Z,60.51
2022-12-17T20:02:45.486Z,60.98
2022-12-17T20:07:55.225Z,60.57
2022-12-17T20:13:15.944Z,61.63
2022-12-17T20:18:19.768Z,61.47
2022-12-17T20:23:28.792Z,60.90
2022-12-17T20:28:34.070Z,60.83
2022-12-17T20:33:37.794Z,61.08
2022-12-17T20:38:43.392Z,61.20
2022-12-17T20:43:47.596Z,61.26
2022-12-17T20:48:51.617Z,61.63
2022-12-17T20:53:57.081Z,61.73
2022-12-17T20:59:03.355Z,61.76
2022-12-17T21:04:08.009Z,61.90
2022-12-17T21:09:13.073Z,65.56
2022-12-17T21:14:30.445Z,68.49
2022-12-17T21:19:37.335Z,53.52
2022-12-17T21:24:44.415Z,47.57
2022-12-17T21:29:49.440Z,49.49
2022-12-17T21:34:53.802Z,51.77
2022-12-17T21:40:11.683Z,53.21
2022-12-17T21:45:15.786Z,54.94
2022-12-17T21:50:20.764Z,56.05
2022-12-17T21:55:25.177Z,57.46
2022-12-17T22:00:29.483Z,58.45
2022-12-17T22:05:48.183Z,59.26
2022-12-17T22:10:52.517Z,59.82
2022-12-17T22:15:56.966Z,60.57
2022-12-17T22:21:02.930Z,60.53
2022-12-17T22:26:11.262Z,60.62
2022-12-17T22:31:35.911Z,60.81
2022-12-17T22:39:03.449Z,60.82
2022-12-17T22:44:39.222Z,60.83
2022-12-17T22:48:04.869Z,60.99
2022-12-17T22:53:09.906Z,61.14
2022-12-17T22:58:18.045Z,61.28
2022-12-17T23:03:21.837Z,61.45
2022-12-17T23:08:25.884Z,61.65
2022-12-17T23:13:32.782Z,61.73
2022-12-17T23:18:36.976Z,61.81
2022-12-17T23:23:41.617Z,61.73
2022-12-17T23:28:46.094Z,61.70
2022-12-17T23:33:52.279Z,61.76
2022-12-17T23:39:09.571Z,61.72
2022-12-17T23:44:12.927Z,61.80
2022-12-17T23:49:16.599Z,61.50
2022-12-17T23:54:21.069Z,61.78
